sensor_id;sensor_type;location;lat;lon;timestamp;P1;durP1;ratioP1;P2;durP2;ratioP2
18997;SDS011;9632;51.018;4.284;2023-04-30T00:01:33;10.38;;;5.45;;
18997;SDS011;9632;51.018;4.284;2023-04-30T00:03:59;9.63;;;5.10;;
18997;SDS011;9632;51.018;4.284;2023-04-30T00:06:24;10.00;;;5.05;;
18997;SDS011;9632;51.018;4.284;2023-04-30T00:08:50;10.00;;;5.05;;
18997;SDS011;9632;51.018;4.284;2023-04-30T00:11:16;10.50;;;4.97;;
18997;SDS011;9632;51.018;4.284;2023-04-30T00:13:41;10.35;;;4.97;;
18997;SDS011;9632;51.018;4.284;2023-04-30T00:16:07;8.43;;;4.72;;
18997;SDS011;9632;51.018;4.284;2023-04-30T00:18:33;8.20;;;4.40;;
18997;SDS011;9632;51.018;4.284;2023-04-30T00:20:58;8.68;;;4.55;;
18997;SDS011;9632;51.018;4.284;2023-04-30T00:23:24;7.25;;;4.60;;
18997;SDS011;9632;51.018;4.284;2023-04-30T00:25:50;9.25;;;4.38;;
18997;SDS011;9632;51.018;4.284;2023-04-30T00:28:15;9.55;;;4.68;;
18997;SDS011;9632;51.018;4.284;2023-04-30T00:30:41;6.30;;;4.10;;
18997;SDS011;9632;51.018;4.284;2023-04-30T00:33:07;8.05;;;4.70;;
18997;SDS011;9632;51.018;4.284;2023-04-30T00:35:33;6.50;;;4.20;;
18997;SDS011;9632;51.018;4.284;2023-04-30T00:37:58;12.13;;;4.75;;
18997;SDS011;9632;51.018;4.284;2023-04-30T00:40:24;7.93;;;3.92;;
18997;SDS011;9632;51.018;4.284;2023-04-30T00:42:50;10.45;;;4.80;;
18997;SDS011;9632;51.018;4.284;2023-04-30T00:45:19;9.35;;;4.68;;
18997;SDS011;9632;51.018;4.284;2023-04-30T00:47:46;9.85;;;4.53;;
18997;SDS011;9632;51.018;4.284;2023-04-30T00:50:12;7.22;;;4.32;;
18997;SDS011;9632;51.018;4.284;2023-04-30T00:52:40;6.50;;;4.10;;
18997;SDS011;9632;51.018;4.284;2023-04-30T00:55:07;7.60;;;4.70;;
18997;SDS011;9632;51.018;4.284;2023-04-30T00:57:35;9.25;;;4.82;;
18997;SDS011;9632;51.018;4.284;2023-04-30T01:00:02;7.45;;;4.22;;
18997;SDS011;9632;51.018;4.284;2023-04-30T01:02:28;8.68;;;4.68;;
18997;SDS011;9632;51.018;4.284;2023-04-30T01:04:54;8.07;;;4.47;;
18997;SDS011;9632;51.018;4.284;2023-04-30T01:07:21;9.93;;;5.10;;
18997;SDS011;9632;51.018;4.284;2023-04-30T01:09:47;9.68;;;4.60;;
18997;SDS011;9632;51.018;4.284;2023-04-30T01:17:47;7.82;;;4.40;;
18997;SDS011;9632;51.018;4.284;2023-04-30T01:20:38;6.47;;;4.43;;
18997;SDS011;9632;51.018;4.284;2023-04-30T01:28:43;9.02;;;5.05;;
18997;SDS011;9632;51.018;4.284;2023-04-30T01:31:12;8.57;;;4.53;;
18997;SDS011;9632;51.018;4.284;2023-04-30T01:33:39;9.82;;;4.78;;
18997;SDS011;9632;51.018;4.284;2023-04-30T01:36:12;8.80;;;4.57;;
18997;SDS011;9632;51.018;4.284;2023-04-30T01:48:02;8.90;;;5.03;;
18997;SDS011;9632;51.018;4.284;2023-04-30T01:50:45;8.65;;;4.80;;
18997;SDS011;9632;51.018;4.284;2023-04-30T01:53:15;8.73;;;4.95;;
18997;SDS011;9632;51.018;4.284;2023-04-30T01:55:49;8.35;;;4.93;;
18997;SDS011;9632;51.018;4.284;2023-04-30T01:58:20;6.80;;;4.40;;
18997;SDS011;9632;51.018;4.284;2023-04-30T02:00:47;10.13;;;5.10;;
18997;SDS011;9632;51.018;4.284;2023-04-30T02:03:13;8.45;;;4.97;;
18997;SDS011;9632;51.018;4.284;2023-04-30T02:05:38;8.60;;;4.95;;
18997;SDS011;9632;51.018;4.284;2023-04-30T02:08:04;7.60;;;4.50;;
18997;SDS011;9632;51.018;4.284;2023-04-30T02:10:30;7.40;;;4.70;;
18997;SDS011;9632;51.018;4.284;2023-04-30T02:12:56;9.82;;;4.88;;
18997;SDS011;9632;51.018;4.284;2023-04-30T02:15:22;9.73;;;4.90;;
18997;SDS011;9632;51.018;4.284;2023-04-30T02:17:47;10.68;;;4.97;;
18997;SDS011;9632;51.018;4.284;2023-04-30T02:20:13;8.98;;;5.50;;
18997;SDS011;9632;51.018;4.284;2023-04-30T02:22:39;11.40;;;5.40;;
18997;SDS011;9632;51.018;4.284;2023-04-30T02:25:04;8.93;;;5.20;;
18997;SDS011;9632;51.018;4.284;2023-04-30T02:27:31;8.30;;;4.80;;
18997;SDS011;9632;51.018;4.284;2023-04-30T02:29:57;11.80;;;5.82;;
18997;SDS011;9632;51.018;4.284;2023-04-30T02:32:24;8.55;;;4.97;;
18997;SDS011;9632;51.018;4.284;2023-04-30T02:34:49;7.70;;;4.53;;
18997;SDS011;9632;51.018;4.284;2023-04-30T02:37:15;8.63;;;4.93;;
18997;SDS011;9632;51.018;4.284;2023-04-30T02:39:41;9.52;;;5.15;;
18997;SDS011;9632;51.018;4.284;2023-04-30T02:42:07;8.27;;;4.90;;
18997;SDS011;9632;51.018;4.284;2023-04-30T02:44:32;11.02;;;5.15;;
18997;SDS011;9632;51.018;4.284;2023-04-30T02:46:59;9.63;;;5.00;;
18997;SDS011;9632;51.018;4.284;2023-04-30T02:49:25;9.25;;;5.03;;
18997;SDS011;9632;51.018;4.284;2023-04-30T02:51:51;10.30;;;5.43;;
18997;SDS011;9632;51.018;4.284;2023-04-30T02:54:16;8.77;;;5.20;;
18997;SDS011;9632;51.018;4.284;2023-04-30T02:56:42;8.45;;;4.82;;
18997;SDS011;9632;51.018;4.284;2023-04-30T02:59:08;10.10;;;5.97;;
18997;SDS011;9632;51.018;4.284;2023-04-30T03:01:34;7.55;;;4.97;;
18997;SDS011;9632;51.018;4.284;2023-04-30T03:04:00;8.65;;;5.20;;
18997;SDS011;9632;51.018;4.284;2023-04-30T03:06:28;9.38;;;5.25;;
18997;SDS011;9632;51.018;4.284;2023-04-30T03:08:53;11.45;;;5.10;;
18997;SDS011;9632;51.018;4.284;2023-04-30T03:11:19;9.07;;;5.50;;
18997;SDS011;9632;51.018;4.284;2023-04-30T03:13:46;9.90;;;5.80;;
18997;SDS011;9632;51.018;4.284;2023-04-30T03:16:16;10.63;;;5.85;;
18997;SDS011;9632;51.018;4.284;2023-04-30T03:18:43;10.60;;;6.00;;
18997;SDS011;9632;51.018;4.284;2023-04-30T03:21:09;10.68;;;5.63;;
18997;SDS011;9632;51.018;4.284;2023-04-30T03:23:34;10.32;;;5.43;;
18997;SDS011;9632;51.018;4.284;2023-04-30T03:26:00;9.30;;;5.57;;
18997;SDS011;9632;51.018;4.284;2023-04-30T03:28:26;9.80;;;5.38;;
18997;SDS011;9632;51.018;4.284;2023-04-30T03:30:51;10.00;;;6.05;;
18997;SDS011;9632;51.018;4.284;2023-04-30T03:33:17;10.55;;;6.10;;
18997;SDS011;9632;51.018;4.284;2023-04-30T03:35:43;9.98;;;5.90;;
18997;SDS011;9632;51.018;4.284;2023-04-30T03:38:08;10.93;;;6.03;;
18997;SDS011;9632;51.018;4.284;2023-04-30T03:40:34;11.02;;;5.80;;
18997;SDS011;9632;51.018;4.284;2023-04-30T03:43:00;12.70;;;5.78;;
18997;SDS011;9632;51.018;4.284;2023-04-30T03:45:25;10.23;;;6.50;;
18997;SDS011;9632;51.018;4.284;2023-04-30T03:47:51;12.43;;;6.00;;
18997;SDS011;9632;51.018;4.284;2023-04-30T03:50:17;10.25;;;6.20;;
18997;SDS011;9632;51.018;4.284;2023-04-30T03:52:43;10.65;;;6.20;;
18997;SDS011;9632;51.018;4.284;2023-04-30T03:55:09;12.90;;;6.30;;
18997;SDS011;9632;51.018;4.284;2023-04-30T03:57:35;10.75;;;6.15;;
18997;SDS011;9632;51.018;4.284;2023-04-30T04:00:02;9.75;;;5.40;;
18997;SDS011;9632;51.018;4.284;2023-04-30T04:02:34;14.18;;;6.53;;
18997;SDS011;9632;51.018;4.284;2023-04-30T04:05:01;12.20;;;6.50;;
18997;SDS011;9632;51.018;4.284;2023-04-30T04:07:27;10.40;;;6.40;;
18997;SDS011;9632;51.018;4.284;2023-04-30T04:09:53;12.40;;;6.53;;
18997;SDS011;9632;51.018;4.284;2023-04-30T04:12:19;10.45;;;6.22;;
18997;SDS011;9632;51.018;4.284;2023-04-30T04:14:45;12.68;;;6.32;;
18997;SDS011;9632;51.018;4.284;2023-04-30T04:17:11;10.95;;;5.88;;
18997;SDS011;9632;51.018;4.284;2023-04-30T04:19:38;10.10;;;6.05;;
18997;SDS011;9632;51.018;4.284;2023-04-30T04:22:03;12.55;;;7.05;;
18997;SDS011;9632;51.018;4.284;2023-04-30T04:24:29;12.30;;;6.32;;
18997;SDS011;9632;51.018;4.284;2023-04-30T04:26:55;11.52;;;6.75;;
18997;SDS011;9632;51.018;4.284;2023-04-30T04:29:20;11.65;;;6.97;;
18997;SDS011;9632;51.018;4.284;2023-04-30T04:31:46;11.50;;;6.78;;
18997;SDS011;9632;51.018;4.284;2023-04-30T04:34:13;10.93;;;6.25;;
18997;SDS011;9632;51.018;4.284;2023-04-30T04:36:38;11.40;;;6.18;;
18997;SDS011;9632;51.018;4.284;2023-04-30T04:39:04;11.77;;;6.43;;
18997;SDS011;9632;51.018;4.284;2023-04-30T04:41:30;12.32;;;7.15;;
18997;SDS011;9632;51.018;4.284;2023-04-30T04:43:57;12.30;;;6.78;;
18997;SDS011;9632;51.018;4.284;2023-04-30T04:46:24;12.90;;;6.70;;
18997;SDS011;9632;51.018;4.284;2023-04-30T04:48:53;14.15;;;7.43;;
18997;SDS011;9632;51.018;4.284;2023-04-30T04:51:19;12.43;;;6.97;;
18997;SDS011;9632;51.018;4.284;2023-04-30T04:53:44;11.43;;;6.78;;
18997;SDS011;9632;51.018;4.284;2023-04-30T04:56:10;14.63;;;7.18;;
18997;SDS011;9632;51.018;4.284;2023-04-30T04:58:36;13.18;;;7.25;;
18997;SDS011;9632;51.018;4.284;2023-04-30T05:01:03;13.80;;;7.28;;
18997;SDS011;9632;51.018;4.284;2023-04-30T05:03:30;12.98;;;7.30;;
18997;SDS011;9632;51.018;4.284;2023-04-30T05:05:56;11.82;;;7.68;;
18997;SDS011;9632;51.018;4.284;2023-04-30T05:08:22;12.25;;;7.00;;
18997;SDS011;9632;51.018;4.284;2023-04-30T05:10:47;10.27;;;6.25;;
18997;SDS011;9632;51.018;4.284;2023-04-30T05:13:13;11.50;;;6.32;;
18997;SDS011;9632;51.018;4.284;2023-04-30T05:15:39;13.48;;;7.03;;
18997;SDS011;9632;51.018;4.284;2023-04-30T05:18:04;14.23;;;8.25;;
18997;SDS011;9632;51.018;4.284;2023-04-30T05:20:30;13.90;;;7.90;;
18997;SDS011;9632;51.018;4.284;2023-04-30T05:22:56;15.18;;;8.15;;
18997;SDS011;9632;51.018;4.284;2023-04-30T05:25:21;13.82;;;8.25;;
18997;SDS011;9632;51.018;4.284;2023-04-30T05:27:47;14.38;;;8.15;;
18997;SDS011;9632;51.018;4.284;2023-04-30T05:30:13;16.95;;;8.60;;
18997;SDS011;9632;51.018;4.284;2023-04-30T05:32:41;17.40;;;9.30;;
18997;SDS011;9632;51.018;4.284;2023-04-30T05:35:07;16.98;;;9.43;;
18997;SDS011;9632;51.018;4.284;2023-04-30T05:37:33;16.38;;;8.80;;
18997;SDS011;9632;51.018;4.284;2023-04-30T05:39:59;19.02;;;9.75;;
18997;SDS011;9632;51.018;4.284;2023-04-30T05:42:25;14.95;;;8.90;;
18997;SDS011;9632;51.018;4.284;2023-04-30T05:44:50;18.88;;;9.50;;
18997;SDS011;9632;51.018;4.284;2023-04-30T05:47:16;18.05;;;9.27;;
18997;SDS011;9632;51.018;4.284;2023-04-30T05:49:42;17.15;;;9.45;;
18997;SDS011;9632;51.018;4.284;2023-04-30T05:52:08;19.33;;;10.43;;
18997;SDS011;9632;51.018;4.284;2023-04-30T05:54:33;18.33;;;10.38;;
18997;SDS011;9632;51.018;4.284;2023-04-30T05:56:59;18.30;;;9.98;;
18997;SDS011;9632;51.018;4.284;2023-04-30T05:59:25;18.60;;;10.10;;
18997;SDS011;9632;51.018;4.284;2023-04-30T06:01:51;21.55;;;10.93;;
18997;SDS011;9632;51.018;4.284;2023-04-30T06:04:16;20.73;;;10.77;;
18997;SDS011;9632;51.018;4.284;2023-04-30T06:06:42;20.25;;;10.77;;
18997;SDS011;9632;51.018;4.284;2023-04-30T06:09:08;19.00;;;10.38;;
18997;SDS011;9632;51.018;4.284;2023-04-30T06:11:34;22.10;;;10.85;;
18997;SDS011;9632;51.018;4.284;2023-04-30T06:14:02;18.20;;;10.70;;
18997;SDS011;9632;51.018;4.284;2023-04-30T06:16:28;19.67;;;10.30;;
18997;SDS011;9632;51.018;4.284;2023-04-30T06:18:54;17.05;;;10.02;;
18997;SDS011;9632;51.018;4.284;2023-04-30T06:21:20;20.13;;;10.70;;
18997;SDS011;9632;51.018;4.284;2023-04-30T06:23:49;19.95;;;10.48;;
18997;SDS011;9632;51.018;4.284;2023-04-30T06:26:16;18.77;;;10.95;;
18997;SDS011;9632;51.018;4.284;2023-04-30T06:28:43;20.35;;;10.57;;
18997;SDS011;9632;51.018;4.284;2023-04-30T06:31:09;20.55;;;10.73;;
18997;SDS011;9632;51.018;4.284;2023-04-30T06:33:35;18.50;;;11.38;;
18997;SDS011;9632;51.018;4.284;2023-04-30T06:36:00;20.77;;;11.27;;
18997;SDS011;9632;51.018;4.284;2023-04-30T06:38:26;19.02;;;11.23;;
18997;SDS011;9632;51.018;4.284;2023-04-30T06:40:52;21.48;;;11.68;;
18997;SDS011;9632;51.018;4.284;2023-04-30T06:43:17;19.75;;;11.82;;
18997;SDS011;9632;51.018;4.284;2023-04-30T06:45:43;21.85;;;12.20;;
18997;SDS011;9632;51.018;4.284;2023-04-30T06:48:09;21.50;;;12.57;;
18997;SDS011;9632;51.018;4.284;2023-04-30T06:50:34;23.02;;;13.00;;
18997;SDS011;9632;51.018;4.284;2023-04-30T06:53:07;26.60;;;13.57;;
18997;SDS011;9632;51.018;4.284;2023-04-30T06:55:33;21.13;;;12.20;;
18997;SDS011;9632;51.018;4.284;2023-04-30T06:57:59;24.92;;;12.70;;
18997;SDS011;9632;51.018;4.284;2023-04-30T07:00:24;24.70;;;13.05;;
18997;SDS011;9632;51.018;4.284;2023-04-30T07:02:50;22.63;;;12.98;;
18997;SDS011;9632;51.018;4.284;2023-04-30T07:05:16;25.33;;;13.30;;
18997;SDS011;9632;51.018;4.284;2023-04-30T07:07:42;23.77;;;13.13;;
18997;SDS011;9632;51.018;4.284;2023-04-30T07:10:08;23.00;;;12.98;;
18997;SDS011;9632;51.018;4.284;2023-04-30T07:12:34;23.67;;;13.23;;
18997;SDS011;9632;51.018;4.284;2023-04-30T07:15:00;23.73;;;13.35;;
18997;SDS011;9632;51.018;4.284;2023-04-30T07:17:28;26.70;;;14.00;;
18997;SDS011;9632;51.018;4.284;2023-04-30T07:19:53;23.33;;;13.90;;
18997;SDS011;9632;51.018;4.284;2023-04-30T07:22:19;24.58;;;13.93;;
18997;SDS011;9632;51.018;4.284;2023-04-30T07:24:45;27.65;;;14.35;;
18997;SDS011;9632;51.018;4.284;2023-04-30T07:27:10;21.50;;;11.93;;
18997;SDS011;9632;51.018;4.284;2023-04-30T07:29:36;26.98;;;14.38;;
18997;SDS011;9632;51.018;4.284;2023-04-30T07:32:02;24.73;;;13.90;;
18997;SDS011;9632;51.018;4.284;2023-04-30T07:34:28;24.00;;;13.98;;
18997;SDS011;9632;51.018;4.284;2023-04-30T07:36:53;26.50;;;15.00;;
18997;SDS011;9632;51.018;4.284;2023-04-30T07:39:19;24.70;;;14.38;;
18997;SDS011;9632;51.018;4.284;2023-04-30T07:41:45;27.70;;;15.07;;
18997;SDS011;9632;51.018;4.284;2023-04-30T07:44:10;25.85;;;14.43;;
18997;SDS011;9632;51.018;4.284;2023-04-30T07:46:36;25.27;;;14.02;;
18997;SDS011;9632;51.018;4.284;2023-04-30T07:49:02;24.25;;;13.82;;
18997;SDS011;9632;51.018;4.284;2023-04-30T07:51:28;22.95;;;13.73;;
18997;SDS011;9632;51.018;4.284;2023-04-30T07:53:53;24.63;;;14.27;;
18997;SDS011;9632;51.018;4.284;2023-04-30T07:56:19;24.42;;;13.57;;
18997;SDS011;9632;51.018;4.284;2023-04-30T07:58:45;23.10;;;13.65;;
18997;SDS011;9632;51.018;4.284;2023-04-30T08:01:11;21.80;;;12.13;;
18997;SDS011;9632;51.018;4.284;2023-04-30T08:03:37;21.67;;;13.43;;
18997;SDS011;9632;51.018;4.284;2023-04-30T08:06:03;22.50;;;13.13;;
18997;SDS011;9632;51.018;4.284;2023-04-30T08:08:29;26.88;;;13.68;;
18997;SDS011;9632;51.018;4.284;2023-04-30T08:10:55;23.70;;;13.13;;
18997;SDS011;9632;51.018;4.284;2023-04-30T08:13:21;23.20;;;13.93;;
18997;SDS011;9632;51.018;4.284;2023-04-30T08:15:46;21.67;;;13.32;;
18997;SDS011;9632;51.018;4.284;2023-04-30T08:18:12;23.73;;;13.15;;
18997;SDS011;9632;51.018;4.284;2023-04-30T08:20:37;21.92;;;13.00;;
18997;SDS011;9632;51.018;4.284;2023-04-30T08:23:03;22.30;;;13.10;;
18997;SDS011;9632;51.018;4.284;2023-04-30T08:25:29;24.10;;;13.10;;
18997;SDS011;9632;51.018;4.284;2023-04-30T08:27:55;22.77;;;12.32;;
18997;SDS011;9632;51.018;4.284;2023-04-30T08:30:21;27.60;;;13.07;;
18997;SDS011;9632;51.018;4.284;2023-04-30T08:32:47;19.42;;;12.43;;
18997;SDS011;9632;51.018;4.284;2023-04-30T08:35:13;19.83;;;12.57;;
18997;SDS011;9632;51.018;4.284;2023-04-30T08:37:40;23.33;;;12.50;;
18997;SDS011;9632;51.018;4.284;2023-04-30T08:40:06;21.92;;;13.15;;
18997;SDS011;9632;51.018;4.284;2023-04-30T08:42:34;24.60;;;13.20;;
18997;SDS011;9632;51.018;4.284;2023-04-30T08:45:02;19.00;;;11.35;;
18997;SDS011;9632;51.018;4.284;2023-04-30T08:47:29;22.55;;;13.18;;
18997;SDS011;9632;51.018;4.284;2023-04-30T08:49:55;21.90;;;12.48;;
18997;SDS011;9632;51.018;4.284;2023-04-30T08:52:21;21.42;;;12.40;;
18997;SDS011;9632;51.018;4.284;2023-04-30T08:54:47;21.95;;;12.43;;
18997;SDS011;9632;51.018;4.284;2023-04-30T08:57:15;23.20;;;12.65;;
18997;SDS011;9632;51.018;4.284;2023-04-30T08:59:43;23.42;;;12.68;;
18997;SDS011;9632;51.018;4.284;2023-04-30T09:02:09;21.17;;;12.48;;
18997;SDS011;9632;51.018;4.284;2023-04-30T09:04:35;32.13;;;13.05;;
18997;SDS011;9632;51.018;4.284;2023-04-30T09:07:01;20.23;;;12.27;;
18997;SDS011;9632;51.018;4.284;2023-04-30T09:09:28;19.77;;;11.23;;
18997;SDS011;9632;51.018;4.284;2023-04-30T09:12:14;22.50;;;11.82;;
18997;SDS011;9632;51.018;4.284;2023-04-30T09:15:00;19.98;;;11.38;;
18997;SDS011;9632;51.018;4.284;2023-04-30T09:17:27;21.90;;;11.70;;
18997;SDS011;9632;51.018;4.284;2023-04-30T09:19:54;19.67;;;11.15;;
18997;SDS011;9632;51.018;4.284;2023-04-30T09:22:33;19.65;;;11.88;;
18997;SDS011;9632;51.018;4.284;2023-04-30T09:25:00;19.33;;;11.13;;
18997;SDS011;9632;51.018;4.284;2023-04-30T09:27:26;23.38;;;11.68;;
18997;SDS011;9632;51.018;4.284;2023-04-30T09:29:52;19.45;;;10.85;;
18997;SDS011;9632;51.018;4.284;2023-04-30T09:32:17;21.65;;;10.70;;
18997;SDS011;9632;51.018;4.284;2023-04-30T09:34:43;15.75;;;9.73;;
18997;SDS011;9632;51.018;4.284;2023-04-30T09:37:09;17.13;;;9.73;;
18997;SDS011;9632;51.018;4.284;2023-04-30T09:39:53;19.38;;;10.20;;
18997;SDS011;9632;51.018;4.284;2023-04-30T09:42:19;16.98;;;9.30;;
18997;SDS011;9632;51.018;4.284;2023-04-30T09:44:45;16.05;;;8.90;;
18997;SDS011;9632;51.018;4.284;2023-04-30T09:47:12;15.07;;;8.77;;
18997;SDS011;9632;51.018;4.284;2023-04-30T09:49:40;15.75;;;9.10;;
18997;SDS011;9632;51.018;4.284;2023-04-30T09:52:07;15.25;;;9.18;;
18997;SDS011;9632;51.018;4.284;2023-04-30T09:54:33;14.38;;;8.40;;
18997;SDS011;9632;51.018;4.284;2023-04-30T09:57:00;16.40;;;8.10;;
18997;SDS011;9632;51.018;4.284;2023-04-30T09:59:30;14.77;;;8.80;;
18997;SDS011;9632;51.018;4.284;2023-04-30T10:02:00;14.55;;;8.52;;
18997;SDS011;9632;51.018;4.284;2023-04-30T10:04:29;14.40;;;8.60;;
18997;SDS011;9632;51.018;4.284;2023-04-30T10:06:57;13.05;;;8.45;;
18997;SDS011;9632;51.018;4.284;2023-04-30T10:09:25;14.60;;;8.82;;
18997;SDS011;9632;51.018;4.284;2023-04-30T10:11:58;16.27;;;8.77;;
18997;SDS011;9632;51.018;4.284;2023-04-30T10:14:26;12.73;;;7.55;;
18997;SDS011;9632;51.018;4.284;2023-04-30T10:17:00;14.98;;;8.10;;
18997;SDS011;9632;51.018;4.284;2023-04-30T10:19:30;14.15;;;7.38;;
18997;SDS011;9632;51.018;4.284;2023-04-30T10:22:00;9.10;;;5.75;;
18997;SDS011;9632;51.018;4.284;2023-04-30T10:24:26;14.63;;;7.78;;
18997;SDS011;9632;51.018;4.284;2023-04-30T10:26:52;12.95;;;7.38;;
18997;SDS011;9632;51.018;4.284;2023-04-30T10:29:19;12.18;;;7.40;;
18997;SDS011;9632;51.018;4.284;2023-04-30T10:31:48;13.82;;;7.88;;
18997;SDS011;9632;51.018;4.284;2023-04-30T10:36:58;12.95;;;7.90;;
18997;SDS011;9632;51.018;4.284;2023-04-30T10:39:28;12.02;;;6.72;;
18997;SDS011;9632;51.018;4.284;2023-04-30T10:42:01;10.02;;;6.65;;
18997;SDS011;9632;51.018;4.284;2023-04-30T10:44:32;12.73;;;8.05;;
18997;SDS011;9632;51.018;4.284;2023-04-30T10:47:05;11.98;;;6.45;;
18997;SDS011;9632;51.018;4.284;2023-04-30T10:49:32;11.30;;;6.90;;
18997;SDS011;9632;51.018;4.284;2023-04-30T10:51:59;12.40;;;7.22;;
18997;SDS011;9632;51.018;4.284;2023-04-30T10:54:28;12.43;;;6.53;;
18997;SDS011;9632;51.018;4.284;2023-04-30T10:59:41;12.93;;;7.53;;
18997;SDS011;9632;51.018;4.284;2023-04-30T11:02:12;11.05;;;6.28;;
18997;SDS011;9632;51.018;4.284;2023-04-30T11:05:07;14.05;;;6.97;;
18997;SDS011;9632;51.018;4.284;2023-04-30T11:07:36;11.02;;;6.60;;
18997;SDS011;9632;51.018;4.284;2023-04-30T11:10:15;13.38;;;6.40;;
18997;SDS011;9632;51.018;4.284;2023-04-30T11:12:48;10.00;;;6.40;;
18997;SDS011;9632;51.018;4.284;2023-04-30T11:15:32;8.75;;;5.15;;
18997;SDS011;9632;51.018;4.284;2023-04-30T11:18:00;9.45;;;5.53;;
18997;SDS011;9632;51.018;4.284;2023-04-30T11:20:26;10.30;;;5.30;;
18997;SDS011;9632;51.018;4.284;2023-04-30T11:25:40;8.55;;;4.85;;
18997;SDS011;9632;51.018;4.284;2023-04-30T11:28:10;8.75;;;5.03;;
18997;SDS011;9632;51.018;4.284;2023-04-30T11:30:40;9.60;;;5.30;;
18997;SDS011;9632;51.018;4.284;2023-04-30T11:33:15;7.78;;;4.50;;
18997;SDS011;9632;51.018;4.284;2023-04-30T11:35:41;8.65;;;4.45;;
18997;SDS011;9632;51.018;4.284;2023-04-30T11:38:07;12.48;;;4.95;;
18997;SDS011;9632;51.018;4.284;2023-04-30T11:40:36;9.93;;;4.80;;
18997;SDS011;9632;51.018;4.284;2023-04-30T11:43:02;8.20;;;4.30;;
18997;SDS011;9632;51.018;4.284;2023-04-30T11:45:28;8.48;;;5.18;;
18997;SDS011;9632;51.018;4.284;2023-04-30T11:47:54;9.55;;;4.35;;
18997;SDS011;9632;51.018;4.284;2023-04-30T11:50:22;7.88;;;4.45;;
18997;SDS011;9632;51.018;4.284;2023-04-30T11:52:53;6.55;;;3.72;;
18997;SDS011;9632;51.018;4.284;2023-04-30T11:55:22;8.02;;;3.40;;
18997;SDS011;9632;51.018;4.284;2023-04-30T11:57:50;5.35;;;2.97;;
18997;SDS011;9632;51.018;4.284;2023-04-30T12:00:19;4.22;;;2.65;;
18997;SDS011;9632;51.018;4.284;2023-04-30T12:02:47;8.15;;;3.40;;
18997;SDS011;9632;51.018;4.284;2023-04-30T12:05:17;5.63;;;3.33;;
18997;SDS011;9632;51.018;4.284;2023-04-30T12:07:48;7.90;;;3.72;;
18997;SDS011;9632;51.018;4.284;2023-04-30T12:10:21;6.45;;;3.97;;
18997;SDS011;9632;51.018;4.284;2023-04-30T12:12:48;5.85;;;3.35;;
18997;SDS011;9632;51.018;4.284;2023-04-30T12:15:18;5.90;;;3.00;;
18997;SDS011;9632;51.018;4.284;2023-04-30T12:17:55;4.20;;;3.17;;
18997;SDS011;9632;51.018;4.284;2023-04-30T12:20:22;4.50;;;2.70;;
18997;SDS011;9632;51.018;4.284;2023-04-30T12:22:49;4.68;;;2.63;;
18997;SDS011;9632;51.018;4.284;2023-04-30T12:25:16;5.57;;;2.90;;
18997;SDS011;9632;51.018;4.284;2023-04-30T12:27:44;4.53;;;2.92;;
18997;SDS011;9632;51.018;4.284;2023-04-30T12:30:11;4.80;;;2.55;;
18997;SDS011;9632;51.018;4.284;2023-04-30T12:32:41;5.15;;;3.15;;
18997;SDS011;9632;51.018;4.284;2023-04-30T12:35:14;5.65;;;2.45;;
18997;SDS011;9632;51.018;4.284;2023-04-30T12:37:42;3.53;;;2.25;;
18997;SDS011;9632;51.018;4.284;2023-04-30T12:40:16;3.70;;;2.38;;
18997;SDS011;9632;51.018;4.284;2023-04-30T12:42:43;5.75;;;2.67;;
18997;SDS011;9632;51.018;4.284;2023-04-30T12:45:11;6.60;;;2.35;;
18997;SDS011;9632;51.018;4.284;2023-04-30T12:47:40;4.97;;;2.30;;
18997;SDS011;9632;51.018;4.284;2023-04-30T12:52:33;4.45;;;2.67;;
18997;SDS011;9632;51.018;4.284;2023-04-30T12:55:13;6.05;;;2.50;;
18997;SDS011;9632;51.018;4.284;2023-04-30T12:58:01;3.25;;;2.50;;
18997;SDS011;9632;51.018;4.284;2023-04-30T13:00:44;3.85;;;2.20;;
18997;SDS011;9632;51.018;4.284;2023-04-30T13:03:14;3.10;;;1.92;;
18997;SDS011;9632;51.018;4.284;2023-04-30T13:05:45;5.30;;;2.10;;
18997;SDS011;9632;51.018;4.284;2023-04-30T13:08:13;5.68;;;2.78;;
18997;SDS011;9632;51.018;4.284;2023-04-30T13:10:39;4.38;;;2.70;;
18997;SDS011;9632;51.018;4.284;2023-04-30T13:13:05;5.30;;;2.40;;
18997;SDS011;9632;51.018;4.284;2023-04-30T13:15:30;4.18;;;1.80;;
18997;SDS011;9632;51.018;4.284;2023-04-30T13:17:56;2.63;;;1.63;;
18997;SDS011;9632;51.018;4.284;2023-04-30T13:20:22;2.75;;;1.85;;
18997;SDS011;9632;51.018;4.284;2023-04-30T13:22:49;2.92;;;1.67;;
18997;SDS011;9632;51.018;4.284;2023-04-30T13:25:15;4.82;;;1.83;;
18997;SDS011;9632;51.018;4.284;2023-04-30T13:27:41;4.43;;;2.10;;
18997;SDS011;9632;51.018;4.284;2023-04-30T13:30:08;4.22;;;1.70;;
18997;SDS011;9632;51.018;4.284;2023-04-30T13:32:34;4.60;;;2.08;;
18997;SDS011;9632;51.018;4.284;2023-04-30T13:35:00;3.35;;;2.15;;
18997;SDS011;9632;51.018;4.284;2023-04-30T13:37:27;3.65;;;1.90;;
18997;SDS011;9632;51.018;4.284;2023-04-30T13:39:55;2.20;;;1.60;;
18997;SDS011;9632;51.018;4.284;2023-04-30T13:42:21;4.22;;;1.65;;
18997;SDS011;9632;51.018;4.284;2023-04-30T13:44:47;3.47;;;1.85;;
18997;SDS011;9632;51.018;4.284;2023-04-30T13:47:14;2.47;;;1.40;;
18997;SDS011;9632;51.018;4.284;2023-04-30T13:49:40;3.40;;;2.00;;
18997;SDS011;9632;51.018;4.284;2023-04-30T13:52:05;3.15;;;1.80;;
18997;SDS011;9632;51.018;4.284;2023-04-30T13:54:31;3.33;;;1.70;;
18997;SDS011;9632;51.018;4.284;2023-04-30T13:56:57;4.53;;;1.83;;
18997;SDS011;9632;51.018;4.284;2023-04-30T13:59:26;2.83;;;1.52;;
18997;SDS011;9632;51.018;4.284;2023-04-30T14:01:52;2.33;;;1.35;;
18997;SDS011;9632;51.018;4.284;2023-04-30T14:04:18;2.97;;;1.70;;
18997;SDS011;9632;51.018;4.284;2023-04-30T14:06:44;1.92;;;1.30;;
18997;SDS011;9632;51.018;4.284;2023-04-30T14:09:09;3.33;;;1.30;;
18997;SDS011;9632;51.018;4.284;2023-04-30T14:11:35;2.28;;;1.42;;
18997;SDS011;9632;51.018;4.284;2023-04-30T14:14:01;1.60;;;1.00;;
18997;SDS011;9632;51.018;4.284;2023-04-30T14:16:27;3.50;;;1.30;;
18997;SDS011;9632;51.018;4.284;2023-04-30T14:18:54;3.50;;;1.17;;
18997;SDS011;9632;51.018;4.284;2023-04-30T14:21:19;2.10;;;0.90;;
18997;SDS011;9632;51.018;4.284;2023-04-30T14:23:45;3.65;;;1.10;;
18997;SDS011;9632;51.018;4.284;2023-04-30T14:26:11;4.45;;;1.30;;
18997;SDS011;9632;51.018;4.284;2023-04-30T14:28:37;2.22;;;1.20;;
18997;SDS011;9632;51.018;4.284;2023-04-30T14:31:03;3.40;;;1.33;;
18997;SDS011;9632;51.018;4.284;2023-04-30T14:33:32;2.30;;;1.10;;
18997;SDS011;9632;51.018;4.284;2023-04-30T14:35:57;1.35;;;1.00;;
18997;SDS011;9632;51.018;4.284;2023-04-30T14:38:26;2.05;;;1.10;;
18997;SDS011;9632;51.018;4.284;2023-04-30T14:40:52;3.60;;;1.40;;
18997;SDS011;9632;51.018;4.284;2023-04-30T14:43:18;2.20;;;1.10;;
18997;SDS011;9632;51.018;4.284;2023-04-30T14:45:44;2.47;;;0.98;;
18997;SDS011;9632;51.018;4.284;2023-04-30T14:48:13;2.95;;;0.88;;
18997;SDS011;9632;51.018;4.284;2023-04-30T14:50:38;1.80;;;1.02;;
18997;SDS011;9632;51.018;4.284;2023-04-30T14:53:04;1.40;;;0.90;;
18997;SDS011;9632;51.018;4.284;2023-04-30T14:55:30;2.70;;;0.85;;
18997;SDS011;9632;51.018;4.284;2023-04-30T14:57:57;1.52;;;1.00;;
18997;SDS011;9632;51.018;4.284;2023-04-30T15:00:23;2.75;;;0.80;;
18997;SDS011;9632;51.018;4.284;2023-04-30T15:02:49;1.40;;;0.85;;
18997;SDS011;9632;51.018;4.284;2023-04-30T15:05:15;2.53;;;0.98;;
18997;SDS011;9632;51.018;4.284;2023-04-30T15:07:40;2.50;;;0.90;;
18997;SDS011;9632;51.018;4.284;2023-04-30T15:10:06;1.13;;;0.70;;
18997;SDS011;9632;51.018;4.284;2023-04-30T15:12:33;1.88;;;0.80;;
18997;SDS011;9632;51.018;4.284;2023-04-30T15:14:59;2.90;;;0.90;;
18997;SDS011;9632;51.018;4.284;2023-04-30T15:17:28;1.15;;;0.80;;
18997;SDS011;9632;51.018;4.284;2023-04-30T15:19:55;2.85;;;1.10;;
18997;SDS011;9632;51.018;4.284;2023-04-30T15:22:24;4.28;;;1.00;;